createdAt,value
2022-11-10T00:01:08.890Z,99.90
2022-11-10T00:03:58.090Z,99.90
2022-11-10T00:06:44.762Z,99.90
2022-11-10T00:09:30.490Z,99.90
2022-11-10T00:12:16.235Z,99.90
2022-11-10T00:15:20.809Z,99.90
2022-11-10T00:18:06.126Z,99.90
2022-11-10T00:20:52.084Z,99.90
2022-11-10T00:23:37.609Z,99.90
2022-11-10T00:26:23.358Z,99.90
2022-11-10T00:29:08.949Z,99.90
2022-11-10T00:31:54.528Z,99.90
2022-11-10T00:34:40.150Z,99.90
2022-11-10T00:37:25.729Z,99.90
2022-11-10T00:40:14.365Z,99.90
2022-11-10T00:43:00.095Z,99.90
2022-11-10T00:45:47.309Z,99.90
2022-11-10T00:48:32.969Z,99.90
2022-11-10T00:51:24.396Z,99.90
2022-11-10T00:54:10.803Z,99.90
2022-11-10T00:56:56.093Z,99.90
2022-11-10T00:59:41.927Z,99.90
2022-11-10T01:02:28.513Z,99.90
2022-11-10T01:05:14.379Z,99.90
2022-11-10T01:08:00.674Z,99.90
2022-11-10T01:10:46.149Z,99.90
2022-11-10T01:13:32.346Z,99.90
2022-11-10T01:16:25.003Z,99.90
2022-11-10T01:19:10.586Z,99.90
2022-11-10T01:21:56.609Z,99.90
2022-11-10T01:24:42.181Z,99.90
2022-11-10T01:27:27.945Z,99.90
2022-11-10T01:30:13.576Z,99.90
2022-11-10T01:32:59.274Z,99.90
2022-11-10T01:35:46.022Z,99.90
2022-11-10T01:38:35.563Z,99.90
2022-11-10T01:41:21.078Z,99.90
2022-11-10T01:44:23.859Z,99.90
2022-11-10T01:47:09.387Z,99.90
2022-11-10T01:49:55.357Z,99.90
2022-11-10T01:52:43.920Z,99.90
2022-11-10T01:55:31.107Z,99.90
2022-11-10T01:58:20.922Z,99.90
2022-11-10T02:01:08.530Z,99.90
2022-11-10T02:03:58.990Z,99.90
2022-11-10T02:06:47.543Z,99.90
2022-11-10T02:09:33.491Z,99.90
2022-11-10T02:12:36.940Z,99.90
2022-11-10T02:15:23.344Z,99.90
2022-11-10T02:18:08.966Z,99.90
2022-11-10T02:20:54.916Z,99.90
2022-11-10T02:23:43.125Z,99.90
2022-11-10T02:26:30.182Z,99.90
2022-11-10T02:29:16.040Z,99.90
2022-11-10T02:32:01.641Z,99.90
2022-11-10T02:34:47.468Z,99.90
2022-11-10T02:37:33.621Z,99.90
2022-11-10T02:40:19.266Z,99.90
2022-11-10T02:43:06.636Z,99.90
2022-11-10T02:45:52.547Z,99.90
2022-11-10T02:48:38.127Z,99.90
2022-11-10T02:51:23.820Z,99.90
2022-11-10T02:54:09.525Z,99.90
2022-11-10T02:56:55.028Z,99.90
2022-11-10T02:59:40.814Z,99.90
2022-11-10T03:02:31.178Z,99.90
2022-11-10T03:05:17.877Z,99.90
2022-11-10T03:08:04.101Z,99.90
2022-11-10T03:10:54.141Z,99.90
2022-11-10T03:13:58.999Z,99.90
2022-11-10T03:16:45.378Z,99.90
2022-11-10T03:19:31.088Z,99.90
2022-11-10T03:22:16.653Z,99.90
2022-11-10T03:25:02.512Z,99.90
2022-11-10T03:27:48.198Z,99.90
2022-11-10T03:30:34.000Z,99.90
2022-11-10T03:33:19.717Z,99.90
2022-11-10T03:36:06.391Z,99.90
2022-11-10T03:38:52.018Z,99.90
2022-11-10T03:41:38.006Z,99.90
2022-11-10T03:44:23.768Z,99.90
2022-11-10T03:47:09.468Z,99.90
2022-11-10T03:49:55.252Z,99.90
2022-11-10T03:52:42.561Z,99.90
2022-11-10T03:55:27.886Z,99.90
2022-11-10T03:58:13.522Z,99.90
2022-11-10T04:00:59.275Z,99.90
2022-11-10T04:03:50.187Z,99.90
2022-11-10T04:06:55.479Z,99.90
2022-11-10T04:09:41.278Z,99.90
2022-11-10T04:12:45.519Z,99.90
2022-11-10T04:15:43.435Z,99.90
2022-11-10T04:18:29.870Z,99.90
2022-11-10T04:21:15.814Z,99.90
2022-11-10T04:24:00.996Z,99.90
2022-11-10T04:26:48.637Z,99.90
2022-11-10T04:29:34.471Z,99.90
2022-11-10T04:32:19.942Z,99.90
2022-11-10T04:35:05.539Z,99.90
2022-11-10T04:37:51.239Z,99.90
2022-11-10T04:40:36.786Z,99.90
2022-11-10T04:43:22.951Z,99.90
2022-11-10T04:46:20.091Z,99.90
2022-11-10T04:49:06.998Z,99.90
2022-11-10T04:51:52.678Z,99.90
2022-11-10T04:54:38.587Z,99.90
2022-11-10T04:57:24.221Z,99.90
2022-11-10T05:00:10.596Z,99.90
2022-11-10T05:02:58.425Z,99.90
2022-11-10T05:05:44.217Z,99.90
2022-11-10T05:08:29.838Z,99.90
2022-11-10T05:11:15.764Z,99.90
2022-11-10T05:14:01.220Z,99.90
2022-11-10T05:16:46.735Z,99.90
2022-11-10T05:19:32.353Z,99.90
2022-11-10T05:22:17.962Z,99.90
2022-11-10T05:25:03.718Z,99.90
2022-11-10T05:27:49.393Z,99.90
2022-11-10T05:30:35.669Z,99.90
2022-11-10T05:33:21.786Z,99.90
2022-11-10T05:36:08.571Z,99.90
2022-11-10T05:38:54.176Z,99.90
2022-11-10T05:41:40.530Z,99.90
2022-11-10T05:44:26.380Z,99.90
2022-11-10T05:47:16.042Z,99.90
2022-11-10T05:50:02.473Z,99.90
2022-11-10T05:52:51.305Z,99.90
2022-11-10T05:55:37.843Z,99.90
2022-11-10T05:58:23.307Z,99.90
2022-11-10T06:01:08.878Z,99.90
2022-11-10T06:03:54.500Z,99.90
2022-11-10T06:06:40.214Z,99.90
2022-11-10T06:09:25.696Z,99.90
2022-11-10T06:12:11.167Z,99.90
2022-11-10T06:14:59.645Z,99.90
2022-11-10T06:17:46.163Z,99.90
2022-11-10T06:20:32.252Z,99.90
2022-11-10T06:23:20.916Z,99.90
2022-11-10T06:26:06.868Z,99.90
2022-11-10T06:28:52.859Z,99.90
2022-11-10T06:31:38.540Z,99.90
2022-11-10T06:34:24.199Z,99.90
2022-11-10T06:37:10.012Z,99.90
2022-11-10T06:39:55.876Z,99.90
2022-11-10T06:42:41.558Z,99.90
2022-11-10T06:45:28.606Z,99.90
2022-11-10T06:48:14.388Z,99.90
2022-11-10T06:51:01.481Z,99.90
2022-11-10T06:53:47.650Z,99.90
2022-11-10T06:56:33.417Z,99.90
2022-11-10T06:59:18.871Z,99.90
2022-11-10T07:02:06.457Z,99.90
2022-11-10T07:04:52.150Z,99.90
2022-11-10T07:07:37.858Z,99.90
2022-11-10T07:10:23.117Z,99.90
2022-11-10T07:13:09.970Z,99.90
2022-11-10T07:15:55.652Z,99.90
2022-11-10T07:18:41.154Z,99.90
2022-11-10T07:21:27.955Z,99.90
2022-11-10T07:24:16.591Z,99.90
2022-11-10T07:27:02.237Z,99.90
2022-11-10T07:29:48.260Z,99.90
2022-11-10T07:32:34.051Z,99.90
2022-11-10T07:35:19.653Z,99.90
2022-11-10T07:38:08.045Z,99.90
2022-11-10T07:40:54.116Z,99.90
2022-11-10T07:43:39.359Z,99.90
2022-11-10T07:46:25.276Z,99.90
2022-11-10T07:49:10.653Z,99.90
2022-11-10T07:51:56.777Z,99.90
2022-11-10T07:54:42.470Z,94.20
2022-11-10T07:57:28.436Z,91.20
2022-11-10T08:00:14.477Z,90.60
2022-11-10T08:03:09.945Z,82.30
2022-11-10T08:05:56.329Z,83.00
2022-11-10T08:08:42.304Z,90.10
2022-11-10T08:11:27.986Z,73.90
2022-11-10T08:14:13.728Z,72.40
2022-11-10T08:16:59.461Z,76.80
2022-11-10T08:19:45.682Z,74.10
2022-11-10T08:22:31.170Z,76.40
2022-11-10T08:25:16.805Z,79.80
2022-11-10T08:28:05.172Z,86.60
2022-11-10T08:30:51.013Z,85.10
2022-11-10T08:33:36.638Z,82.70
2022-11-10T08:36:22.625Z,65.90
2022-11-10T08:39:08.330Z,64.90
2022-11-10T08:41:54.274Z,44.90
2022-11-10T08:44:39.944Z,37.50
2022-11-10T08:47:25.497Z,40.20
2022-11-10T08:50:11.134Z,35.90
2022-11-10T08:53:07.904Z,45.00
2022-11-10T08:55:53.974Z,52.80
2022-11-10T08:58:48.540Z,61.80
2022-11-10T09:01:38.311Z,60.70
2022-11-10T09:04:24.003Z,65.50
2022-11-10T09:07:09.904Z,67.40
2022-11-10T09:10:06.601Z,78.40
2022-11-10T09:12:53.568Z,74.70
2022-11-10T09:15:40.318Z,73.70
2022-11-10T09:18:25.899Z,63.00
2022-11-10T09:21:12.915Z,62.40
2022-11-10T09:23:58.580Z,60.80
2022-11-10T09:26:47.562Z,43.10
2022-11-10T09:29:33.852Z,48.50
2022-11-10T09:32:19.684Z,26.30
2022-11-10T09:35:05.773Z,27.00
2022-11-10T09:37:51.435Z,27.50
2022-11-10T09:40:58.837Z,31.20
2022-11-10T09:44:12.143Z,20.70
2022-11-10T09:47:12.468Z,29.20
2022-11-10T09:50:02.986Z,15.60
2022-11-10T09:52:50.105Z,14.70
2022-11-10T09:55:50.989Z,8.80
2022-11-10T09:58:43.430Z,13.60
2022-11-10T10:01:50.081Z,8.00
2022-11-10T10:04:53.258Z,1.00
2022-11-10T10:08:06.691Z,1.00
2022-11-10T10:10:55.653Z,15.20
2022-11-10T10:14:09.179Z,16.50
2022-11-10T10:17:04.373Z,10.10
2022-11-10T10:20:02.832Z,2.20
2022-11-10T10:22:52.881Z,17.80
2022-11-10T10:25:41.457Z,20.30
2022-11-10T10:28:39.044Z,25.70
2022-11-10T10:31:30.352Z,17.20
2022-11-10T10:34:27.295Z,5.00
2022-11-10T10:37:32.677Z,16.70
2022-11-10T10:40:21.741Z,3.10
2022-11-10T10:43:07.618Z,7.70
2022-11-10T10:46:18.698Z,1.00
2022-11-10T10:49:27.847Z,1.00
2022-11-10T10:52:24.812Z,1.00
2022-11-10T10:55:13.098Z,1.00
2022-11-10T10:58:21.413Z,1.00
2022-11-10T11:01:16.880Z,1.00
2022-11-10T11:04:25.128Z,1.00
2022-11-10T11:07:23.179Z,1.00
2022-11-10T11:10:22.948Z,1.00
2022-11-10T11:13:20.808Z,1.00
2022-11-10T11:16:09.149Z,1.00
2022-11-10T11:18:55.104Z,99.90
2022-11-10T11:21:52.600Z,1.00
2022-11-10T11:24:42.641Z,1.00
2022-11-10T11:27:58.673Z,1.00
2022-11-10T11:31:06.385Z,1.00
2022-11-10T11:34:10.626Z,99.90
2022-11-10T11:37:00.801Z,1.00
2022-11-10T11:40:00.187Z,1.00
2022-11-10T11:43:06.990Z,1.00
2022-11-10T11:46:14.962Z,1.00
2022-11-10T11:49:38.184Z,1.00
2022-11-10T11:52:54.347Z,1.00
2022-11-10T11:55:58.493Z,1.00
2022-11-10T11:58:51.604Z,1.00
2022-11-10T12:02:24.628Z,1.00
2022-11-10T12:05:29.344Z,99.90
2022-11-10T12:08:23.922Z,99.90
2022-11-10T12:11:34.582Z,99.90
2022-11-10T12:14:42.989Z,1.00
2022-11-10T12:17:53.442Z,1.00
2022-11-10T12:20:47.873Z,99.90
2022-11-10T12:23:47.973Z,99.90
2022-11-10T12:26:43.422Z,99.90
2022-11-10T12:29:33.592Z,99.90
2022-11-10T12:32:40.071Z,99.90
2022-11-10T12:35:34.051Z,99.90
2022-11-10T12:38:46.364Z,99.90
2022-11-10T12:41:46.301Z,99.90
2022-11-10T12:44:59.732Z,99.90
2022-11-10T12:47:47.174Z,99.90
2022-11-10T12:50:35.715Z,99.90
2022-11-10T12:53:30.476Z,99.90
2022-11-10T12:56:30.169Z,99.90
2022-11-10T12:59:24.564Z,99.90
2022-11-10T13:02:16.699Z,99.90
2022-11-10T13:05:14.322Z,1.00
2022-11-10T13:08:25.524Z,1.00
2022-11-10T13:11:11.301Z,1.00
2022-11-10T13:13:59.907Z,99.90
2022-11-10T13:16:54.593Z,99.90
2022-11-10T13:19:43.771Z,99.90
2022-11-10T13:22:41.061Z,99.90
2022-11-10T13:25:36.608Z,99.90
2022-11-10T13:28:46.986Z,99.90
2022-11-10T13:31:32.739Z,99.90
2022-11-10T13:34:21.437Z,99.90
2022-11-10T13:37:34.745Z,99.90
2022-11-10T13:40:23.377Z,99.90
2022-11-10T13:43:25.725Z,99.90
2022-11-10T13:46:11.340Z,99.90
2022-11-10T13:49:21.658Z,1.00
2022-11-10T13:52:27.599Z,1.00
2022-11-10T13:55:22.780Z,1.00
2022-11-10T13:58:18.839Z,1.00
2022-11-10T14:01:30.314Z,1.00
2022-11-10T14:04:45.213Z,1.00
2022-11-10T14:07:42.983Z,1.00
2022-11-10T14:10:49.522Z,1.00
2022-11-10T14:13:41.719Z,1.00
2022-11-10T14:16:31.608Z,1.00
2022-11-10T14:19:40.088Z,2.80
2022-11-10T14:22:44.808Z,5.80
2022-11-10T14:25:41.141Z,5.60
2022-11-10T14:28:32.861Z,11.80
2022-11-10T14:31:24.881Z,12.70
2022-11-10T14:34:15.661Z,15.90
2022-11-10T14:37:03.427Z,18.60
2022-11-10T14:39:52.149Z,18.50
2022-11-10T14:42:39.269Z,20.80
2022-11-10T14:45:29.441Z,25.20
2022-11-10T14:48:20.961Z,25.80
2022-11-10T14:51:19.459Z,26.70
2022-11-10T14:54:10.353Z,27.40
2022-11-10T14:56:57.104Z,29.10
2022-11-10T14:59:42.806Z,30.50
2022-11-10T15:02:28.565Z,32.30
2022-11-10T15:05:15.754Z,37.30
2022-11-10T15:08:04.075Z,45.90
2022-11-10T15:10:53.219Z,45.30
2022-11-10T15:13:39.960Z,53.90
2022-11-10T15:16:39.820Z,56.30
2022-11-10T15:19:32.173Z,58.70
2022-11-10T15:22:23.688Z,60.90
2022-11-10T15:25:15.659Z,62.70
2022-11-10T15:28:06.761Z,60.70
2022-11-10T15:30:56.404Z,63.40
2022-11-10T15:33:47.132Z,61.50
2022-11-10T15:36:35.603Z,66.40
2022-11-10T15:39:26.673Z,69.40
2022-11-10T15:42:21.919Z,71.00
2022-11-10T15:45:07.914Z,76.50
2022-11-10T15:47:53.421Z,78.20
2022-11-10T15:50:39.624Z,80.40
2022-11-10T15:53:28.088Z,84.00
2022-11-10T15:56:20.460Z,88.20
2022-11-10T15:59:06.129Z,88.00
2022-11-10T16:01:51.937Z,88.80
2022-11-10T16:04:37.338Z,91.10
2022-11-10T16:07:23.644Z,92.00
2022-11-10T16:10:09.453Z,92.00
2022-11-10T16:12:55.418Z,92.50
2022-11-10T16:15:44.621Z,94.40
2022-11-10T16:18:31.173Z,95.80
2022-11-10T16:21:19.951Z,96.10
2022-11-10T16:24:06.001Z,96.70
2022-11-10T16:26:51.365Z,97.70
2022-11-10T16:29:37.958Z,98.80
2022-11-10T16:32:24.016Z,99.90
2022-11-10T16:35:14.118Z,99.90
2022-11-10T16:37:59.481Z,99.90
2022-11-10T16:40:53.204Z,99.90
2022-11-10T16:43:40.860Z,99.90
2022-11-10T16:46:29.775Z,99.90
2022-11-10T16:49:28.111Z,99.90
2022-11-10T16:52:15.940Z,99.90
2022-11-10T16:55:01.546Z,99.90
2022-11-10T16:57:48.407Z,99.90
2022-11-10T17:00:34.225Z,99.90
2022-11-10T17:03:50.776Z,99.90
2022-11-10T17:06:36.577Z,99.90
2022-11-10T17:09:25.630Z,99.90
2022-11-10T17:12:13.465Z,99.90
2022-11-10T17:14:59.012Z,99.90
2022-11-10T17:17:47.122Z,99.90
2022-11-10T17:20:36.213Z,99.90
2022-11-10T17:23:24.333Z,99.90
2022-11-10T17:26:15.464Z,99.90
2022-11-10T17:29:01.101Z,99.90
2022-11-10T17:31:47.442Z,99.90
2022-11-10T17:34:33.089Z,99.90
2022-11-10T17:37:19.140Z,99.90
2022-11-10T17:40:26.303Z,99.90
2022-11-10T17:43:13.626Z,99.90
2022-11-10T17:45:59.200Z,99.90
2022-11-10T17:48:46.924Z,99.90
2022-11-10T17:51:33.909Z,99.90
2022-11-10T17:54:19.768Z,99.90
2022-11-10T17:57:06.020Z,99.90
2022-11-10T17:59:51.898Z,99.90
2022-11-10T18:02:37.304Z,99.90
2022-11-10T18:05:23.339Z,99.90
2022-11-10T18:08:11.714Z,99.90
2022-11-10T18:11:00.750Z,99.90
2022-11-10T18:13:46.348Z,99.90
2022-11-10T18:16:32.841Z,99.90
2022-11-10T18:19:20.606Z,99.90
2022-11-10T18:22:08.267Z,99.90
2022-11-10T18:24:53.839Z,99.90
2022-11-10T18:27:40.218Z,99.90
2022-11-10T18:30:25.594Z,99.90
2022-11-10T18:33:12.652Z,99.90
2022-11-10T18:36:01.062Z,99.90
2022-11-10T18:38:47.312Z,99.90
2022-11-10T18:41:52.330Z,99.90
2022-11-10T18:44:38.643Z,99.90
2022-11-10T18:47:24.218Z,99.90
2022-11-10T18:50:10.215Z,99.90
2022-11-10T18:52:55.829Z,99.90
2022-11-10T18:55:45.413Z,99.90
2022-11-10T18:58:31.237Z,99.90
2022-11-10T19:01:17.283Z,99.90
2022-11-10T19:04:03.112Z,99.90
2022-11-10T19:06:48.880Z,99.90
2022-11-10T19:09:34.436Z,99.90
2022-11-10T19:12:26.399Z,99.90
2022-11-10T19:15:12.691Z,99.90
2022-11-10T19:17:58.332Z,99.90
2022-11-10T19:20:43.924Z,99.90
2022-11-10T19:23:29.722Z,99.90
2022-11-10T19:26:22.849Z,99.90
2022-11-10T19:29:09.403Z,99.90
2022-11-10T19:31:55.186Z,99.90
2022-11-10T19:34:40.980Z,99.90
2022-11-10T19:37:29.793Z,99.90
2022-11-10T19:40:19.567Z,99.90
2022-11-10T19:43:05.471Z,99.90
2022-11-10T19:45:51.516Z,99.90
2022-11-10T19:48:37.306Z,99.90
2022-11-10T19:51:24.734Z,99.90
2022-11-10T19:54:15.762Z,99.90
2022-11-10T19:57:01.905Z,99.90
2022-11-10T19:59:49.473Z,99.90
2022-11-10T20:02:35.585Z,99.90
2022-11-10T20:05:22.212Z,99.90
2022-11-10T20:08:12.100Z,99.90
2022-11-10T20:11:12.291Z,99.90
2022-11-10T20:14:02.054Z,99.90
2022-11-10T20:16:47.567Z,99.90
2022-11-10T20:19:40.804Z,99.90
2022-11-10T20:22:27.255Z,99.90
2022-11-10T20:25:13.358Z,99.90
2022-11-10T20:28:03.413Z,99.90
2022-11-10T20:30:49.180Z,99.90
2022-11-10T20:33:35.835Z,99.90
2022-11-10T20:36:27.596Z,99.90
2022-11-10T20:39:13.465Z,99.90
2022-11-10T20:42:03.362Z,99.90
2022-11-10T20:44:49.038Z,99.90
2022-11-10T20:47:34.891Z,99.90
2022-11-10T20:50:24.634Z,99.90
2022-11-10T20:53:10.810Z,99.90
2022-11-10T20:56:02.633Z,99.90
2022-11-10T20:58:49.163Z,99.90
2022-11-10T21:01:37.919Z,99.90
2022-11-10T21:04:24.561Z,99.90
2022-11-10T21:07:10.301Z,99.90
2022-11-10T21:09:56.632Z,99.90
2022-11-10T21:12:51.339Z,99.90
2022-11-10T21:15:39.692Z,99.90
2022-11-10T21:18:27.923Z,99.90
2022-11-10T21:21:26.310Z,99.90
2022-11-10T21:24:12.038Z,99.90
2022-11-10T21:26:58.532Z,99.90
2022-11-10T21:29:44.648Z,99.90
2022-11-10T21:32:30.699Z,99.90
2022-11-10T21:35:16.782Z,99.90
2022-11-10T21:38:03.495Z,99.90
2022-11-10T21:40:49.196Z,99.90
2022-11-10T21:43:35.430Z,99.90
2022-11-10T21:46:21.026Z,99.90
2022-11-10T21:49:08.301Z,99.90
2022-11-10T21:51:54.103Z,99.90
2022-11-10T21:54:42.861Z,99.90
2022-11-10T21:57:28.466Z,99.90
2022-11-10T22:00:14.713Z,99.90
2022-11-10T22:03:01.479Z,99.90
2022-11-10T22:05:47.096Z,99.90
2022-11-10T22:08:34.037Z,99.90
2022-11-10T22:11:40.101Z,99.90
2022-11-10T22:14:44.554Z,99.90
2022-11-10T22:17:49.074Z,99.90
2022-11-10T22:20:34.647Z,99.90
2022-11-10T22:23:40.286Z,99.90
2022-11-10T22:26:25.826Z,99.90
2022-11-10T22:29:11.808Z,99.90
2022-11-10T22:31:58.852Z,99.90
2022-11-10T22:34:45.102Z,99.90
2022-11-10T22:37:33.072Z,99.90
2022-11-10T22:40:38.548Z,99.90
2022-11-10T22:43:46.905Z,99.90
2022-11-10T22:46:45.867Z,99.90
2022-11-10T22:49:31.235Z,99.90
2022-11-10T22:52:17.076Z,99.90
2022-11-10T22:55:02.780Z,99.90
2022-11-10T22:57:51.426Z,99.90
2022-11-10T23:00:37.272Z,99.90
2022-11-10T23:03:23.388Z,99.90
2022-11-10T23:06:10.194Z,99.90
2022-11-10T23:08:57.275Z,99.90
2022-11-10T23:11:42.441Z,99.90
2022-11-10T23:14:28.018Z,99.90
2022-11-10T23:17:13.421Z,99.90
2022-11-10T23:19:59.238Z,99.90
2022-11-10T23:22:44.918Z,99.90
2022-11-10T23:25:30.724Z,99.90
2022-11-10T23:28:16.469Z,99.90
2022-11-10T23:31:09.057Z,99.90
2022-11-10T23:33:56.797Z,99.90
2022-11-10T23:36:42.692Z,99.90
2022-11-10T23:39:27.937Z,99.90
2022-11-10T23:42:13.908Z,99.90
2022-11-10T23:44:59.540Z,99.90
2022-11-10T23:47:45.196Z,99.90
2022-11-10T23:50:30.761Z,99.90
2022-11-10T23:53:17.510Z,99.90
2022-11-10T23:56:06.144Z,99.90
2022-11-10T23:58:51.705Z,99.90
